createdAt,value
2017-09-29T08:30:22.863Z,17.20
2017-09-29T08:32:51.980Z,17.30
2017-09-29T08:35:20.525Z,17.40
2017-09-29T08:37:49.632Z,17.60
2017-09-29T08:40:17.926Z,17.60
2017-09-29T08:42:46.284Z,17.80
2017-09-29T08:45:17.092Z,18.00
2017-09-29T08:47:45.394Z,17.90
2017-09-29T08:50:15.659Z,18.00
2017-09-29T08:52:45.146Z,17.90
2017-09-29T08:55:13.440Z,18.20
2017-09-29T08:57:41.769Z,18.30
2017-09-29T09:00:10.142Z,18.50
2017-09-29T09:02:38.469Z,18.50
2017-09-29T09:05:07.664Z,18.60
2017-09-29T09:07:36.051Z,18.90
2017-09-29T09:10:05.088Z,19.20
2017-09-29T09:12:35.063Z,19.20
2017-09-29T09:15:03.416Z,19.30
2017-09-29T09:17:31.839Z,19.50
2017-09-29T09:20:00.920Z,20.10
2017-09-29T09:22:29.246Z,20.10
2017-09-29T09:24:57.683Z,20.30
2017-09-29T09:27:27.068Z,20.60
2017-09-29T09:29:56.143Z,20.60
2017-09-29T09:32:25.278Z,21.20
2017-09-29T09:34:54.369Z,21.20
2017-09-29T09:37:24.428Z,21.30
2017-09-29T09:39:52.741Z,21.60
2017-09-29T09:42:21.024Z,21.90
2017-09-29T09:44:49.355Z,22.00
2017-09-29T09:47:17.676Z,22.40
2017-09-29T09:49:45.983Z,22.80
2017-09-29T09:52:14.327Z,23.20
2017-09-29T09:54:42.648Z,23.60
2017-09-29T09:57:10.943Z,23.70
2017-09-29T09:59:39.276Z,24.00
2017-09-29T10:02:10.431Z,24.40
2017-09-29T10:04:39.569Z,25.40
2017-09-29T10:07:08.738Z,25.40
2017-09-29T10:09:37.160Z,25.90
2017-09-29T10:12:06.370Z,26.30
2017-09-29T10:14:36.542Z,26.60
2017-09-29T10:17:04.872Z,26.60
2017-09-29T10:19:33.999Z,27.40
2017-09-29T10:22:03.101Z,27.40
2017-09-29T10:24:32.227Z,28.40
2017-09-29T10:27:01.322Z,29.30
2017-09-29T10:29:30.697Z,29.30
2017-09-29T10:31:59.030Z,30.20
2017-09-29T10:34:27.303Z,31.50
2017-09-29T10:36:56.396Z,32.10
2017-09-29T10:39:24.742Z,32.60
2017-09-29T10:41:54.857Z,33.30
2017-09-29T10:44:23.676Z,34.40
2017-09-29T10:46:52.743Z,36.00
2017-09-29T10:49:21.141Z,36.00
2017-09-29T10:51:50.242Z,37.30
2017-09-29T10:54:18.526Z,37.30
2017-09-29T10:56:47.921Z,36.90
2017-09-29T10:59:16.282Z,36.90
2017-09-29T11:01:45.375Z,36.30
2017-09-29T11:04:13.667Z,36.70
2017-09-29T11:06:42.569Z,36.60
2017-09-29T11:09:10.898Z,36.20
2017-09-29T11:11:40.448Z,36.50
2017-09-29T11:14:08.779Z,36.50
2017-09-29T11:16:37.840Z,36.70
2017-09-29T11:19:06.270Z,36.60
2017-09-29T11:21:35.747Z,38.40
2017-09-29T11:24:04.371Z,38.30
2017-09-29T11:26:33.470Z,39.30
2017-09-29T11:29:02.570Z,40.20
2017-09-29T11:31:32.027Z,41.50
2017-09-29T11:34:01.501Z,41.40
2017-09-29T11:36:30.649Z,40.40
2017-09-29T11:39:00.011Z,40.30
2017-09-29T11:41:29.109Z,41.50
2017-09-29T11:43:58.195Z,41.80
2017-09-29T11:46:26.530Z,41.70
2017-09-29T11:48:54.831Z,40.00
2017-09-29T11:51:23.159Z,40.80
2017-09-29T11:53:52.254Z,42.40
2017-09-29T11:56:21.336Z,43.00
2017-09-29T11:58:51.329Z,42.50
2017-09-29T12:01:19.813Z,42.50
2017-09-29T12:03:48.884Z,41.50
2017-09-29T12:06:17.756Z,40.90
2017-09-29T12:11:15.627Z,39.10
2017-09-29T12:13:45.135Z,38.50
2017-09-29T12:16:13.738Z,38.50
2017-09-29T12:18:42.822Z,39.20
2017-09-29T12:21:11.104Z,39.10
2017-09-29T12:23:39.444Z,40.30
2017-09-29T12:26:07.754Z,41.00
2017-09-29T12:28:36.340Z,41.20
2017-09-29T12:31:04.756Z,40.50
2017-09-29T12:36:03.044Z,42.10
2017-09-29T12:38:31.402Z,42.20
2017-09-29T12:41:00.020Z,41.70
2017-09-29T12:43:28.320Z,41.90
2017-09-29T12:45:56.765Z,42.20
2017-09-29T12:48:25.218Z,42.40
2017-09-29T12:50:53.619Z,43.30
2017-09-29T12:53:22.380Z,43.30
2017-09-29T12:55:50.819Z,42.40
2017-09-29T12:58:19.130Z,42.30
2017-09-29T13:00:47.495Z,41.70
2017-09-29T13:03:16.538Z,40.80
2017-09-29T13:05:46.057Z,40.70
2017-09-29T13:08:14.714Z,40.70
2017-09-29T13:10:43.885Z,40.80
2017-09-29T13:13:12.355Z,41.10
2017-09-29T13:15:40.754Z,42.00
2017-09-29T13:18:11.175Z,41.40
2017-09-29T13:20:39.465Z,41.00
2017-09-29T13:23:08.527Z,42.10
2017-09-29T13:25:36.838Z,42.00
2017-09-29T13:28:05.122Z,43.30
2017-09-29T13:30:34.337Z,42.70
2017-09-29T13:33:02.682Z,40.90
2017-09-29T13:35:31.135Z,39.60
2017-09-29T13:38:00.594Z,38.60
2017-09-29T13:40:28.923Z,38.60
2017-09-29T13:42:57.972Z,38.90
2017-09-29T13:45:26.302Z,38.90
2017-09-29T13:47:54.637Z,39.30
2017-09-29T13:50:22.947Z,39.20
2017-09-29T13:52:52.148Z,40.10
2017-09-29T13:55:21.607Z,39.70
2017-09-29T13:57:49.990Z,39.70
2017-09-29T14:00:19.102Z,38.10
2017-09-29T14:02:48.044Z,38.90
2017-09-29T14:05:17.083Z,39.90
2017-09-29T14:07:45.378Z,39.90
2017-09-29T14:10:13.694Z,40.60
2017-09-29T14:12:42.000Z,41.00
2017-09-29T14:15:10.327Z,40.70
2017-09-29T14:17:38.623Z,40.50
2017-09-29T14:20:06.910Z,40.30
2017-09-29T14:22:36.461Z,40.50
2017-09-29T14:25:05.902Z,38.30
2017-09-29T14:27:34.223Z,38.20
2017-09-29T14:30:02.551Z,37.70
2017-09-29T14:32:31.908Z,37.60
2017-09-29T14:35:00.408Z,37.20
2017-09-29T14:37:29.446Z,37.20
2017-09-29T14:39:57.796Z,37.70
2017-09-29T14:42:27.206Z,37.40
2017-09-29T14:44:56.314Z,37.70
2017-09-29T14:47:24.611Z,37.60
2017-09-29T14:49:52.938Z,38.10
2017-09-29T14:57:21.869Z,37.00
2017-09-29T14:59:50.215Z,37.50
2017-09-29T15:02:18.565Z,37.80
2017-09-29T15:04:47.694Z,37.70
2017-09-29T15:07:16.050Z,37.40
2017-09-29T15:09:44.974Z,37.50
2017-09-29T15:12:13.311Z,37.30
2017-09-29T15:14:41.591Z,36.80
2017-09-29T15:17:11.034Z,36.50
2017-09-29T15:19:39.313Z,36.30
2017-09-29T15:22:07.664Z,35.90
